sensor_id;sensor_type;location;lat;lon;timestamp;P1;durP1;ratioP1;P2;durP2;ratioP2
50789;SDS011;37287;47.554;7.844;2023-04-25T00:01:25;2.17;;;1.63;;
50789;SDS011;37287;47.554;7.844;2023-04-25T00:03:51;2.25;;;1.50;;
50789;SDS011;37287;47.554;7.844;2023-04-25T00:06:22;5.60;;;1.83;;
50789;SDS011;37287;47.554;7.844;2023-04-25T00:08:54;3.80;;;1.70;;
50789;SDS011;37287;47.554;7.844;2023-04-25T00:11:22;2.72;;;1.40;;
50789;SDS011;37287;47.554;7.844;2023-04-25T00:13:49;3.03;;;1.30;;
50789;SDS011;37287;47.554;7.844;2023-04-25T00:16:19;1.27;;;1.17;;
50789;SDS011;37287;47.554;7.844;2023-04-25T00:18:46;2.20;;;1.48;;
50789;SDS011;37287;47.554;7.844;2023-04-25T00:21:18;6.05;;;1.50;;
50789;SDS011;37287;47.554;7.844;2023-04-25T00:23:47;2.00;;;1.60;;
50789;SDS011;37287;47.554;7.844;2023-04-25T00:26:14;2.03;;;1.50;;
50789;SDS011;37287;47.554;7.844;2023-04-25T00:28:41;3.40;;;1.23;;
50789;SDS011;37287;47.554;7.844;2023-04-25T00:31:07;2.30;;;1.58;;
50789;SDS011;37287;47.554;7.844;2023-04-25T00:33:34;1.27;;;1.13;;
50789;SDS011;37287;47.554;7.844;2023-04-25T00:36:01;2.78;;;1.55;;
50789;SDS011;37287;47.554;7.844;2023-04-25T00:38:27;1.63;;;1.13;;
50789;SDS011;37287;47.554;7.844;2023-04-25T00:40:54;2.30;;;1.40;;
50789;SDS011;37287;47.554;7.844;2023-04-25T00:43:21;1.58;;;1.20;;
50789;SDS011;37287;47.554;7.844;2023-04-25T00:45:50;2.65;;;1.17;;
50789;SDS011;37287;47.554;7.844;2023-04-25T00:48:18;2.17;;;1.40;;
50789;SDS011;37287;47.554;7.844;2023-04-25T00:50:49;2.35;;;1.20;;
50789;SDS011;37287;47.554;7.844;2023-04-25T00:53:23;3.20;;;1.20;;
50789;SDS011;37287;47.554;7.844;2023-04-25T00:55:51;1.42;;;1.27;;
50789;SDS011;37287;47.554;7.844;2023-04-25T00:58:19;2.28;;;1.30;;
50789;SDS011;37287;47.554;7.844;2023-04-25T01:00:49;2.78;;;1.30;;
50789;SDS011;37287;47.554;7.844;2023-04-25T01:03:18;2.28;;;1.10;;
50789;SDS011;37287;47.554;7.844;2023-04-25T01:05:48;2.35;;;1.45;;
50789;SDS011;37287;47.554;7.844;2023-04-25T01:08:16;1.25;;;1.13;;
50789;SDS011;37287;47.554;7.844;2023-04-25T01:10:43;2.60;;;1.40;;
50789;SDS011;37287;47.554;7.844;2023-04-25T01:13:10;1.23;;;1.13;;
50789;SDS011;37287;47.554;7.844;2023-04-25T01:15:37;2.00;;;1.40;;
50789;SDS011;37287;47.554;7.844;2023-04-25T01:18:04;2.03;;;1.20;;
50789;SDS011;37287;47.554;7.844;2023-04-25T01:20:32;1.73;;;1.30;;
50789;SDS011;37287;47.554;7.844;2023-04-25T01:23:03;3.45;;;1.38;;
50789;SDS011;37287;47.554;7.844;2023-04-25T01:25:30;1.88;;;1.48;;
50789;SDS011;37287;47.554;7.844;2023-04-25T01:27:57;3.67;;;1.70;;
50789;SDS011;37287;47.554;7.844;2023-04-25T01:30:26;7.03;;;1.50;;
50789;SDS011;37287;47.554;7.844;2023-04-25T01:32:56;1.52;;;1.35;;
50789;SDS011;37287;47.554;7.844;2023-04-25T01:35:29;2.80;;;1.38;;
50789;SDS011;37287;47.554;7.844;2023-04-25T01:37:56;1.90;;;1.38;;
50789;SDS011;37287;47.554;7.844;2023-04-25T01:40:22;1.88;;;1.38;;
50789;SDS011;37287;47.554;7.844;2023-04-25T01:42:51;1.30;;;1.20;;
50789;SDS011;37287;47.554;7.844;2023-04-25T01:45:20;2.15;;;1.30;;
50789;SDS011;37287;47.554;7.844;2023-04-25T01:47:46;1.60;;;1.50;;
50789;SDS011;37287;47.554;7.844;2023-04-25T01:50:18;4.05;;;1.30;;
50789;SDS011;37287;47.554;7.844;2023-04-25T01:52:45;1.15;;;1.10;;
50789;SDS011;37287;47.554;7.844;2023-04-25T01:55:14;1.50;;;1.30;;
50789;SDS011;37287;47.554;7.844;2023-04-25T01:57:41;2.40;;;1.38;;
50789;SDS011;37287;47.554;7.844;2023-04-25T02:00:08;1.98;;;1.38;;
50789;SDS011;37287;47.554;7.844;2023-04-25T02:02:35;1.60;;;1.50;;
50789;SDS011;37287;47.554;7.844;2023-04-25T02:05:05;4.68;;;1.88;;
50789;SDS011;37287;47.554;7.844;2023-04-25T02:07:32;1.52;;;1.42;;
50789;SDS011;37287;47.554;7.844;2023-04-25T02:09:58;1.33;;;1.23;;
50789;SDS011;37287;47.554;7.844;2023-04-25T02:12:27;2.53;;;1.55;;
50789;SDS011;37287;47.554;7.844;2023-04-25T02:14:54;1.67;;;1.40;;
50789;SDS011;37287;47.554;7.844;2023-04-25T02:17:23;2.40;;;1.70;;
50789;SDS011;37287;47.554;7.844;2023-04-25T02:19:51;1.40;;;1.30;;
50789;SDS011;37287;47.554;7.844;2023-04-25T02:22:18;2.28;;;1.60;;
50789;SDS011;37287;47.554;7.844;2023-04-25T02:24:45;2.95;;;1.52;;
50789;SDS011;37287;47.554;7.844;2023-04-25T02:27:17;1.75;;;1.40;;
50789;SDS011;37287;47.554;7.844;2023-04-25T02:29:44;1.73;;;1.40;;
50789;SDS011;37287;47.554;7.844;2023-04-25T02:32:11;3.53;;;1.88;;
50789;SDS011;37287;47.554;7.844;2023-04-25T02:34:39;2.33;;;1.70;;
50789;SDS011;37287;47.554;7.844;2023-04-25T02:37:05;3.47;;;2.03;;
50789;SDS011;37287;47.554;7.844;2023-04-25T02:39:32;3.47;;;2.00;;
50789;SDS011;37287;47.554;7.844;2023-04-25T02:42:03;1.98;;;1.83;;
50789;SDS011;37287;47.554;7.844;2023-04-25T02:44:30;2.45;;;1.88;;
50789;SDS011;37287;47.554;7.844;2023-04-25T02:46:56;3.72;;;1.90;;
50789;SDS011;37287;47.554;7.844;2023-04-25T02:49:28;2.28;;;1.90;;
50789;SDS011;37287;47.554;7.844;2023-04-25T02:51:54;4.60;;;2.05;;
50789;SDS011;37287;47.554;7.844;2023-04-25T02:54:21;3.58;;;1.80;;
50789;SDS011;37287;47.554;7.844;2023-04-25T02:56:52;5.05;;;2.33;;
50789;SDS011;37287;47.554;7.844;2023-04-25T02:59:19;2.22;;;2.03;;
50789;SDS011;37287;47.554;7.844;2023-04-25T03:01:45;2.88;;;2.30;;
50789;SDS011;37287;47.554;7.844;2023-04-25T03:04:12;4.40;;;2.42;;
50789;SDS011;37287;47.554;7.844;2023-04-25T03:06:39;2.75;;;1.80;;
50789;SDS011;37287;47.554;7.844;2023-04-25T03:09:05;5.40;;;1.83;;
50789;SDS011;37287;47.554;7.844;2023-04-25T03:11:38;3.75;;;2.63;;
50789;SDS011;37287;47.554;7.844;2023-04-25T03:14:05;6.35;;;2.90;;
50789;SDS011;37287;47.554;7.844;2023-04-25T03:16:31;5.05;;;2.67;;
50789;SDS011;37287;47.554;7.844;2023-04-25T03:19:00;4.82;;;2.60;;
50789;SDS011;37287;47.554;7.844;2023-04-25T03:21:27;3.95;;;3.03;;
50789;SDS011;37287;47.554;7.844;2023-04-25T03:23:53;3.95;;;2.55;;
50789;SDS011;37287;47.554;7.844;2023-04-25T03:26:20;4.53;;;2.70;;
50789;SDS011;37287;47.554;7.844;2023-04-25T03:28:46;3.45;;;2.58;;
50789;SDS011;37287;47.554;7.844;2023-04-25T03:31:16;4.28;;;2.88;;
50789;SDS011;37287;47.554;7.844;2023-04-25T03:33:43;4.40;;;3.08;;
50789;SDS011;37287;47.554;7.844;2023-04-25T03:36:09;2.80;;;2.40;;
50789;SDS011;37287;47.554;7.844;2023-04-25T03:38:36;2.53;;;2.15;;
50789;SDS011;37287;47.554;7.844;2023-04-25T03:41:04;5.57;;;2.42;;
50789;SDS011;37287;47.554;7.844;2023-04-25T03:43:31;6.15;;;2.45;;
50789;SDS011;37287;47.554;7.844;2023-04-25T03:45:57;3.05;;;2.38;;
50789;SDS011;37287;47.554;7.844;2023-04-25T03:48:30;5.25;;;2.25;;
50789;SDS011;37287;47.554;7.844;2023-04-25T03:50:57;4.05;;;2.50;;
50789;SDS011;37287;47.554;7.844;2023-04-25T03:53:23;5.05;;;2.63;;
50789;SDS011;37287;47.554;7.844;2023-04-25T03:55:50;3.63;;;2.22;;
50789;SDS011;37287;47.554;7.844;2023-04-25T03:58:17;3.22;;;2.58;;
50789;SDS011;37287;47.554;7.844;2023-04-25T04:00:44;3.67;;;2.42;;
50789;SDS011;37287;47.554;7.844;2023-04-25T04:03:12;6.50;;;2.35;;
50789;SDS011;37287;47.554;7.844;2023-04-25T04:05:45;4.28;;;2.00;;
50789;SDS011;37287;47.554;7.844;2023-04-25T04:08:12;3.58;;;2.65;;
50789;SDS011;37287;47.554;7.844;2023-04-25T04:10:41;3.50;;;2.00;;
50789;SDS011;37287;47.554;7.844;2023-04-25T04:13:07;4.20;;;2.50;;
50789;SDS011;37287;47.554;7.844;2023-04-25T04:15:34;4.22;;;2.13;;
50789;SDS011;37287;47.554;7.844;2023-04-25T04:18:02;3.00;;;2.20;;
50789;SDS011;37287;47.554;7.844;2023-04-25T04:20:29;5.65;;;2.03;;
50789;SDS011;37287;47.554;7.844;2023-04-25T04:23:01;3.15;;;2.30;;
50789;SDS011;37287;47.554;7.844;2023-04-25T04:25:28;5.82;;;2.35;;
50789;SDS011;37287;47.554;7.844;2023-04-25T04:27:54;4.18;;;2.10;;
50789;SDS011;37287;47.554;7.844;2023-04-25T04:30:22;3.50;;;2.50;;
50789;SDS011;37287;47.554;7.844;2023-04-25T04:35:23;3.08;;;2.15;;
50789;SDS011;37287;47.554;7.844;2023-04-25T04:37:50;2.97;;;2.00;;
50789;SDS011;37287;47.554;7.844;2023-04-25T04:40:17;6.57;;;1.95;;
50789;SDS011;37287;47.554;7.844;2023-04-25T04:42:44;3.60;;;2.00;;
50789;SDS011;37287;47.554;7.844;2023-04-25T04:45:14;2.88;;;2.20;;
50789;SDS011;37287;47.554;7.844;2023-04-25T04:47:42;3.60;;;2.22;;
50789;SDS011;37287;47.554;7.844;2023-04-25T04:50:09;2.67;;;2.10;;
50789;SDS011;37287;47.554;7.844;2023-04-25T04:52:36;6.03;;;2.65;;
50789;SDS011;37287;47.554;7.844;2023-04-25T04:55:06;2.50;;;2.30;;
50789;SDS011;37287;47.554;7.844;2023-04-25T04:57:35;2.20;;;2.00;;
50789;SDS011;37287;47.554;7.844;2023-04-25T05:00:02;3.10;;;2.17;;
50789;SDS011;37287;47.554;7.844;2023-04-25T05:02:31;8.40;;;3.05;;
50789;SDS011;37287;47.554;7.844;2023-04-25T05:04:58;4.03;;;2.70;;
50789;SDS011;37287;47.554;7.844;2023-04-25T05:07:24;3.15;;;2.40;;
50789;SDS011;37287;47.554;7.844;2023-04-25T05:09:53;5.35;;;2.25;;
50789;SDS011;37287;47.554;7.844;2023-04-25T05:12:20;5.82;;;2.80;;
50789;SDS011;37287;47.554;7.844;2023-04-25T05:14:46;8.98;;;4.25;;
50789;SDS011;37287;47.554;7.844;2023-04-25T05:17:14;12.70;;;3.85;;
50789;SDS011;37287;47.554;7.844;2023-04-25T05:19:45;4.15;;;2.95;;
50789;SDS011;37287;47.554;7.844;2023-04-25T05:22:12;5.18;;;3.10;;
50789;SDS011;37287;47.554;7.844;2023-04-25T05:24:38;6.68;;;2.58;;
50789;SDS011;37287;47.554;7.844;2023-04-25T05:27:05;3.95;;;2.20;;
50789;SDS011;37287;47.554;7.844;2023-04-25T05:29:32;4.10;;;2.15;;
50789;SDS011;37287;47.554;7.844;2023-04-25T05:32:01;2.38;;;1.75;;
50789;SDS011;37287;47.554;7.844;2023-04-25T05:34:27;3.08;;;1.80;;
50789;SDS011;37287;47.554;7.844;2023-04-25T05:36:54;5.93;;;1.92;;
50789;SDS011;37287;47.554;7.844;2023-04-25T05:39:27;2.03;;;1.67;;
50789;SDS011;37287;47.554;7.844;2023-04-25T05:41:53;3.95;;;1.98;;
50789;SDS011;37287;47.554;7.844;2023-04-25T05:44:20;2.65;;;1.80;;
50789;SDS011;37287;47.554;7.844;2023-04-25T05:46:47;4.00;;;1.45;;
50789;SDS011;37287;47.554;7.844;2023-04-25T05:49:13;1.10;;;1.10;;
50789;SDS011;37287;47.554;7.844;2023-04-25T05:51:44;2.72;;;1.65;;
50789;SDS011;37287;47.554;7.844;2023-04-25T05:54:13;2.33;;;1.50;;
50789;SDS011;37287;47.554;7.844;2023-04-25T05:56:40;1.95;;;1.60;;
50789;SDS011;37287;47.554;7.844;2023-04-25T05:59:06;3.40;;;1.30;;
50789;SDS011;37287;47.554;7.844;2023-04-25T06:01:41;1.70;;;1.60;;
50789;SDS011;37287;47.554;7.844;2023-04-25T06:04:08;2.05;;;1.52;;
50789;SDS011;37287;47.554;7.844;2023-04-25T06:06:35;2.92;;;1.55;;
50789;SDS011;37287;47.554;7.844;2023-04-25T06:09:03;2.20;;;1.63;;
50789;SDS011;37287;47.554;7.844;2023-04-25T06:11:31;2.17;;;1.60;;
50789;SDS011;37287;47.554;7.844;2023-04-25T06:13:58;1.83;;;1.50;;
50789;SDS011;37287;47.554;7.844;2023-04-25T06:16:25;2.63;;;1.63;;
50789;SDS011;37287;47.554;7.844;2023-04-25T06:18:52;3.67;;;1.85;;
50789;SDS011;37287;47.554;7.844;2023-04-25T06:21:19;1.95;;;1.75;;
50789;SDS011;37287;47.554;7.844;2023-04-25T06:23:49;1.95;;;1.48;;
50789;SDS011;37287;47.554;7.844;2023-04-25T06:26:16;1.92;;;1.63;;
50789;SDS011;37287;47.554;7.844;2023-04-25T06:28:43;2.15;;;1.70;;
50789;SDS011;37287;47.554;7.844;2023-04-25T06:31:09;2.00;;;1.42;;
50789;SDS011;37287;47.554;7.844;2023-04-25T06:33:38;3.22;;;1.90;;
50789;SDS011;37287;47.554;7.844;2023-04-25T06:36:05;2.00;;;1.77;;
50789;SDS011;37287;47.554;7.844;2023-04-25T06:38:33;1.70;;;1.60;;
50789;SDS011;37287;47.554;7.844;2023-04-25T06:41:01;2.35;;;1.70;;
50789;SDS011;37287;47.554;7.844;2023-04-25T06:43:27;3.17;;;2.00;;
50789;SDS011;37287;47.554;7.844;2023-04-25T06:45:56;1.85;;;1.75;;
50789;SDS011;37287;47.554;7.844;2023-04-25T06:48:23;1.95;;;1.67;;
50789;SDS011;37287;47.554;7.844;2023-04-25T06:50:49;4.00;;;2.15;;
50789;SDS011;37287;47.554;7.844;2023-04-25T06:53:16;2.33;;;1.90;;
50789;SDS011;37287;47.554;7.844;2023-04-25T06:55:43;3.88;;;2.00;;
50789;SDS011;37287;47.554;7.844;2023-04-25T06:58:09;2.60;;;1.83;;
50789;SDS011;37287;47.554;7.844;2023-04-25T07:00:44;2.40;;;2.20;;
50789;SDS011;37287;47.554;7.844;2023-04-25T07:03:10;2.95;;;2.13;;
50789;SDS011;37287;47.554;7.844;2023-04-25T07:05:37;2.97;;;2.28;;
50789;SDS011;37287;47.554;7.844;2023-04-25T07:08:04;3.03;;;2.17;;
50789;SDS011;37287;47.554;7.844;2023-04-25T07:10:31;2.67;;;2.00;;
50789;SDS011;37287;47.554;7.844;2023-04-25T07:12:57;2.13;;;1.80;;
50789;SDS011;37287;47.554;7.844;2023-04-25T07:15:32;2.47;;;2.00;;
50789;SDS011;37287;47.554;7.844;2023-04-25T07:17:59;2.40;;;1.75;;
50789;SDS011;37287;47.554;7.844;2023-04-25T07:20:26;3.08;;;2.30;;
50789;SDS011;37287;47.554;7.844;2023-04-25T07:22:55;4.85;;;2.35;;
50789;SDS011;37287;47.554;7.844;2023-04-25T07:25:22;3.70;;;2.40;;
50789;SDS011;37287;47.554;7.844;2023-04-25T07:27:51;4.65;;;2.22;;
50789;SDS011;37287;47.554;7.844;2023-04-25T07:30:19;5.25;;;2.20;;
50789;SDS011;37287;47.554;7.844;2023-04-25T07:32:45;3.00;;;2.70;;
50789;SDS011;37287;47.554;7.844;2023-04-25T07:35:12;4.55;;;3.00;;
50789;SDS011;37287;47.554;7.844;2023-04-25T07:37:39;6.03;;;3.03;;
50789;SDS011;37287;47.554;7.844;2023-04-25T07:40:06;5.43;;;3.20;;
50789;SDS011;37287;47.554;7.844;2023-04-25T07:42:34;3.97;;;3.17;;
50789;SDS011;37287;47.554;7.844;2023-04-25T07:45:01;4.80;;;3.40;;
50789;SDS011;37287;47.554;7.844;2023-04-25T07:47:29;5.95;;;3.88;;
50789;SDS011;37287;47.554;7.844;2023-04-25T07:49:56;5.25;;;4.25;;
50789;SDS011;37287;47.554;7.844;2023-04-25T07:52:25;5.43;;;4.63;;
50789;SDS011;37287;47.554;7.844;2023-04-25T07:54:52;4.53;;;4.00;;
50789;SDS011;37287;47.554;7.844;2023-04-25T07:57:18;3.83;;;3.53;;
50789;SDS011;37287;47.554;7.844;2023-04-25T07:59:48;4.97;;;3.75;;
50789;SDS011;37287;47.554;7.844;2023-04-25T08:02:15;3.88;;;3.22;;
50789;SDS011;37287;47.554;7.844;2023-04-25T08:04:41;5.15;;;3.35;;
50789;SDS011;37287;47.554;7.844;2023-04-25T08:07:08;4.30;;;3.55;;
50789;SDS011;37287;47.554;7.844;2023-04-25T08:09:39;3.53;;;3.22;;
50789;SDS011;37287;47.554;7.844;2023-04-25T08:12:05;5.65;;;3.72;;
50789;SDS011;37287;47.554;7.844;2023-04-25T08:14:32;3.85;;;3.45;;
50789;SDS011;37287;47.554;7.844;2023-04-25T08:17:02;4.53;;;3.08;;
50789;SDS011;37287;47.554;7.844;2023-04-25T08:19:30;4.93;;;2.92;;
50789;SDS011;37287;47.554;7.844;2023-04-25T08:22:02;3.33;;;3.03;;
50789;SDS011;37287;47.554;7.844;2023-04-25T08:24:29;2.90;;;2.55;;
50789;SDS011;37287;47.554;7.844;2023-04-25T08:26:56;3.53;;;2.55;;
50789;SDS011;37287;47.554;7.844;2023-04-25T08:29:24;3.60;;;2.47;;
50789;SDS011;37287;47.554;7.844;2023-04-25T08:31:52;2.67;;;1.95;;
50789;SDS011;37287;47.554;7.844;2023-04-25T08:34:19;3.10;;;1.85;;
50789;SDS011;37287;47.554;7.844;2023-04-25T08:36:46;2.15;;;1.95;;
50789;SDS011;37287;47.554;7.844;2023-04-25T08:39:13;2.25;;;1.77;;
50789;SDS011;37287;47.554;7.844;2023-04-25T08:41:40;3.15;;;2.10;;
50789;SDS011;37287;47.554;7.844;2023-04-25T08:44:09;3.53;;;2.20;;
50789;SDS011;37287;47.554;7.844;2023-04-25T08:46:40;2.75;;;1.98;;
50789;SDS011;37287;47.554;7.844;2023-04-25T08:49:07;1.73;;;1.63;;
50789;SDS011;37287;47.554;7.844;2023-04-25T08:51:43;2.67;;;1.73;;
50789;SDS011;37287;47.554;7.844;2023-04-25T08:54:16;2.15;;;1.67;;
50789;SDS011;37287;47.554;7.844;2023-04-25T08:56:55;2.53;;;1.73;;
50789;SDS011;37287;47.554;7.844;2023-04-25T08:59:24;1.83;;;1.73;;
50789;SDS011;37287;47.554;7.844;2023-04-25T09:01:57;2.40;;;1.70;;
50789;SDS011;37287;47.554;7.844;2023-04-25T09:04:24;4.18;;;1.90;;
50789;SDS011;37287;47.554;7.844;2023-04-25T09:06:53;2.72;;;1.80;;
50789;SDS011;37287;47.554;7.844;2023-04-25T09:09:19;3.78;;;1.77;;
50789;SDS011;37287;47.554;7.844;2023-04-25T09:11:46;2.35;;;1.70;;
50789;SDS011;37287;47.554;7.844;2023-04-25T09:14:16;2.10;;;1.67;;
50789;SDS011;37287;47.554;7.844;2023-04-25T09:19:34;1.85;;;1.67;;
50789;SDS011;37287;47.554;7.844;2023-04-25T09:22:08;1.83;;;1.30;;
50789;SDS011;37287;47.554;7.844;2023-04-25T09:24:38;2.45;;;1.60;;
50789;SDS011;37287;47.554;7.844;2023-04-25T09:29:39;1.20;;;1.10;;
50789;SDS011;37287;47.554;7.844;2023-04-25T09:32:22;1.48;;;1.38;;
50789;SDS011;37287;47.554;7.844;2023-04-25T09:34:51;1.30;;;1.17;;
50789;SDS011;37287;47.554;7.844;2023-04-25T09:39:57;2.10;;;1.70;;
50789;SDS011;37287;47.554;7.844;2023-04-25T09:42:29;3.85;;;1.60;;
50789;SDS011;37287;47.554;7.844;2023-04-25T09:44:58;1.52;;;1.42;;
50789;SDS011;37287;47.554;7.844;2023-04-25T09:47:25;2.35;;;1.40;;
50789;SDS011;37287;47.554;7.844;2023-04-25T09:49:53;2.83;;;1.40;;
50789;SDS011;37287;47.554;7.844;2023-04-25T09:52:22;1.30;;;1.15;;
50789;SDS011;37287;47.554;7.844;2023-04-25T09:54:51;13.85;;;1.60;;
50789;SDS011;37287;47.554;7.844;2023-04-25T09:57:26;2.58;;;1.33;;
50789;SDS011;37287;47.554;7.844;2023-04-25T09:59:54;3.38;;;1.40;;
50789;SDS011;37287;47.554;7.844;2023-04-25T10:02:26;1.33;;;1.23;;
50789;SDS011;37287;47.554;7.844;2023-04-25T10:04:54;4.53;;;1.50;;
50789;SDS011;37287;47.554;7.844;2023-04-25T10:07:23;1.88;;;1.30;;
50789;SDS011;37287;47.554;7.844;2023-04-25T10:10:01;1.20;;;1.08;;
50789;SDS011;37287;47.554;7.844;2023-04-25T10:12:30;2.53;;;1.20;;
50789;SDS011;37287;47.554;7.844;2023-04-25T10:14:57;0.90;;;0.90;;
50789;SDS011;37287;47.554;7.844;2023-04-25T10:17:25;2.95;;;1.33;;
50789;SDS011;37287;47.554;7.844;2023-04-25T10:19:54;2.75;;;1.60;;
50789;SDS011;37287;47.554;7.844;2023-04-25T10:22:27;2.05;;;1.45;;
50789;SDS011;37287;47.554;7.844;2023-04-25T10:24:59;1.80;;;1.30;;
50789;SDS011;37287;47.554;7.844;2023-04-25T10:27:30;1.23;;;1.13;;
50789;SDS011;37287;47.554;7.844;2023-04-25T10:30:03;1.90;;;1.00;;
50789;SDS011;37287;47.554;7.844;2023-04-25T10:32:31;1.55;;;1.30;;
50789;SDS011;37287;47.554;7.844;2023-04-25T10:35:15;1.23;;;1.20;;
50789;SDS011;37287;47.554;7.844;2023-04-25T10:40:32;1.10;;;1.00;;
50789;SDS011;37287;47.554;7.844;2023-04-25T10:46:00;4.82;;;1.40;;
50789;SDS011;37287;47.554;7.844;2023-04-25T10:48:38;1.00;;;0.95;;
50789;SDS011;37287;47.554;7.844;2023-04-25T10:51:14;1.60;;;1.50;;
50789;SDS011;37287;47.554;7.844;2023-04-25T10:53:44;3.38;;;1.40;;
50789;SDS011;37287;47.554;7.844;2023-04-25T10:59:05;1.77;;;1.23;;
50789;SDS011;37287;47.554;7.844;2023-04-25T11:04:21;1.13;;;1.02;;
50789;SDS011;37287;47.554;7.844;2023-04-25T11:09:41;1.52;;;1.20;;
50789;SDS011;37287;47.554;7.844;2023-04-25T11:12:09;2.13;;;1.40;;
50789;SDS011;37287;47.554;7.844;2023-04-25T11:14:38;1.13;;;1.02;;
50789;SDS011;37287;47.554;7.844;2023-04-25T11:17:11;1.48;;;1.13;;
50789;SDS011;37287;47.554;7.844;2023-04-25T11:19:38;0.90;;;0.90;;
50789;SDS011;37287;47.554;7.844;2023-04-25T11:22:17;2.78;;;1.33;;
50789;SDS011;37287;47.554;7.844;2023-04-25T11:24:44;1.75;;;1.13;;
50789;SDS011;37287;47.554;7.844;2023-04-25T11:27:11;2.83;;;1.13;;
50789;SDS011;37287;47.554;7.844;2023-04-25T11:29:40;1.10;;;0.98;;
50789;SDS011;37287;47.554;7.844;2023-04-25T11:32:07;1.08;;;1.02;;
50789;SDS011;37287;47.554;7.844;2023-04-25T11:34:34;1.60;;;1.10;;
50789;SDS011;37287;47.554;7.844;2023-04-25T11:37:02;1.88;;;1.05;;
50789;SDS011;37287;47.554;7.844;2023-04-25T11:39:30;1.27;;;1.17;;
50789;SDS011;37287;47.554;7.844;2023-04-25T11:41:57;1.92;;;1.40;;
50789;SDS011;37287;47.554;7.844;2023-04-25T11:44:26;2.22;;;1.27;;
50789;SDS011;37287;47.554;7.844;2023-04-25T11:46:57;3.38;;;1.17;;
50789;SDS011;37287;47.554;7.844;2023-04-25T11:49:24;2.40;;;1.02;;
50789;SDS011;37287;47.554;7.844;2023-04-25T11:52:20;2.27;;;1.30;;
50789;SDS011;37287;47.554;7.844;2023-04-25T11:54:56;3.33;;;1.15;;
50789;SDS011;37287;47.554;7.844;2023-04-25T11:57:23;1.40;;;1.20;;
50789;SDS011;37287;47.554;7.844;2023-04-25T11:59:49;2.13;;;1.00;;
50789;SDS011;37287;47.554;7.844;2023-04-25T12:02:25;1.35;;;1.00;;
50789;SDS011;37287;47.554;7.844;2023-04-25T12:04:58;1.02;;;0.93;;
50789;SDS011;37287;47.554;7.844;2023-04-25T12:07:46;1.58;;;1.20;;
50789;SDS011;37287;47.554;7.844;2023-04-25T12:10:13;1.92;;;1.27;;
50789;SDS011;37287;47.554;7.844;2023-04-25T12:12:42;2.22;;;1.00;;
50789;SDS011;37287;47.554;7.844;2023-04-25T12:17:46;2.40;;;1.25;;
50789;SDS011;37287;47.554;7.844;2023-04-25T12:20:14;1.60;;;1.20;;
50789;SDS011;37287;47.554;7.844;2023-04-25T12:22:43;1.30;;;1.20;;
50789;SDS011;37287;47.554;7.844;2023-04-25T12:25:36;5.43;;;1.20;;
50789;SDS011;37287;47.554;7.844;2023-04-25T12:28:14;1.48;;;1.00;;
50789;SDS011;37287;47.554;7.844;2023-04-25T12:31:01;1.30;;;1.17;;
50789;SDS011;37287;47.554;7.844;2023-04-25T12:33:35;0.98;;;0.80;;
50789;SDS011;37287;47.554;7.844;2023-04-25T12:36:04;1.05;;;0.90;;
50789;SDS011;37287;47.554;7.844;2023-04-25T12:38:35;1.00;;;0.90;;
50789;SDS011;37287;47.554;7.844;2023-04-25T12:41:08;1.92;;;1.27;;
50789;SDS011;37287;47.554;7.844;2023-04-25T12:43:35;0.82;;;0.80;;
50789;SDS011;37287;47.554;7.844;2023-04-25T12:46:02;3.35;;;1.00;;
50789;SDS011;37287;47.554;7.844;2023-04-25T12:48:29;1.23;;;1.00;;
50789;SDS011;37287;47.554;7.844;2023-04-25T12:50:59;1.17;;;0.98;;
50789;SDS011;37287;47.554;7.844;2023-04-25T12:53:27;1.40;;;1.00;;
50789;SDS011;37287;47.554;7.844;2023-04-25T12:55:54;1.10;;;0.82;;
50789;SDS011;37287;47.554;7.844;2023-04-25T12:58:22;1.05;;;0.90;;
50789;SDS011;37287;47.554;7.844;2023-04-25T13:00:49;0.95;;;0.90;;
50789;SDS011;37287;47.554;7.844;2023-04-25T13:03:16;1.25;;;0.90;;
50789;SDS011;37287;47.554;7.844;2023-04-25T13:05:45;2.10;;;0.90;;
50789;SDS011;37287;47.554;7.844;2023-04-25T13:08:12;1.70;;;0.93;;
50789;SDS011;37287;47.554;7.844;2023-04-25T13:13:14;1.50;;;1.00;;
50789;SDS011;37287;47.554;7.844;2023-04-25T13:15:42;0.77;;;0.73;;
50789;SDS011;37287;47.554;7.844;2023-04-25T13:18:14;1.00;;;0.80;;
50789;SDS011;37287;47.554;7.844;2023-04-25T13:20:41;0.65;;;0.65;;
50789;SDS011;37287;47.554;7.844;2023-04-25T13:23:07;1.92;;;0.70;;
50789;SDS011;37287;47.554;7.844;2023-04-25T13:25:46;0.68;;;0.60;;
50789;SDS011;37287;47.554;7.844;2023-04-25T13:28:13;0.65;;;0.65;;
50789;SDS011;37287;47.554;7.844;2023-04-25T13:30:40;1.08;;;0.63;;
50789;SDS011;37287;47.554;7.844;2023-04-25T13:33:12;1.60;;;0.80;;
50789;SDS011;37287;47.554;7.844;2023-04-25T13:35:39;0.93;;;0.70;;
50789;SDS011;37287;47.554;7.844;2023-04-25T13:38:05;1.95;;;0.80;;
50789;SDS011;37287;47.554;7.844;2023-04-25T13:40:32;1.65;;;1.15;;
50789;SDS011;37287;47.554;7.844;2023-04-25T13:42:59;1.60;;;1.08;;
50789;SDS011;37287;47.554;7.844;2023-04-25T13:45:28;1.40;;;1.00;;
50789;SDS011;37287;47.554;7.844;2023-04-25T13:47:58;1.42;;;0.80;;
50789;SDS011;37287;47.554;7.844;2023-04-25T13:50:24;0.80;;;0.80;;
50789;SDS011;37287;47.554;7.844;2023-04-25T13:52:51;1.17;;;0.85;;
50789;SDS011;37287;47.554;7.844;2023-04-25T13:55:19;0.65;;;0.60;;
50789;SDS011;37287;47.554;7.844;2023-04-25T13:57:50;0.70;;;0.50;;
50789;SDS011;37287;47.554;7.844;2023-04-25T14:00:16;1.27;;;0.60;;
50789;SDS011;37287;47.554;7.844;2023-04-25T14:02:45;0.47;;;0.47;;
50789;SDS011;37287;47.554;7.844;2023-04-25T14:05:15;2.05;;;0.60;;
50789;SDS011;37287;47.554;7.844;2023-04-25T14:07:41;0.38;;;0.38;;
50789;SDS011;37287;47.554;7.844;2023-04-25T14:10:12;0.63;;;0.50;;
50789;SDS011;37287;47.554;7.844;2023-04-25T14:12:39;0.77;;;0.52;;
50789;SDS011;37287;47.554;7.844;2023-04-25T14:15:06;0.40;;;0.40;;
50789;SDS011;37287;47.554;7.844;2023-04-25T14:17:56;1.70;;;0.60;;
50789;SDS011;37287;47.554;7.844;2023-04-25T14:20:23;0.40;;;0.40;;
50789;SDS011;37287;47.554;7.844;2023-04-25T14:22:52;0.60;;;0.55;;
50789;SDS011;37287;47.554;7.844;2023-04-25T14:25:20;0.30;;;0.30;;
50789;SDS011;37287;47.554;7.844;2023-04-25T14:27:47;1.45;;;0.50;;
50789;SDS011;37287;47.554;7.844;2023-04-25T14:30:16;0.50;;;0.50;;
50789;SDS011;37287;47.554;7.844;2023-04-25T14:32:44;0.55;;;0.52;;
50789;SDS011;37287;47.554;7.844;2023-04-25T14:35:13;1.00;;;0.40;;
50789;SDS011;37287;47.554;7.844;2023-04-25T14:37:39;0.50;;;0.50;;
50789;SDS011;37287;47.554;7.844;2023-04-25T14:40:07;0.63;;;0.40;;
50789;SDS011;37287;47.554;7.844;2023-04-25T14:42:39;1.00;;;0.50;;
50789;SDS011;37287;47.554;7.844;2023-04-25T14:45:06;0.90;;;0.70;;
50789;SDS011;37287;47.554;7.844;2023-04-25T14:47:35;1.70;;;0.70;;
50789;SDS011;37287;47.554;7.844;2023-04-25T14:50:03;0.50;;;0.50;;
50789;SDS011;37287;47.554;7.844;2023-04-25T14:52:30;0.98;;;0.63;;
50789;SDS011;37287;47.554;7.844;2023-04-25T14:54:57;1.25;;;0.50;;
50789;SDS011;37287;47.554;7.844;2023-04-25T14:57:26;0.82;;;0.68;;
50789;SDS011;37287;47.554;7.844;2023-04-25T14:59:54;0.88;;;0.60;;
50789;SDS011;37287;47.554;7.844;2023-04-25T15:02:21;0.40;;;0.40;;
50789;SDS011;37287;47.554;7.844;2023-04-25T15:04:48;0.85;;;0.57;;
50789;SDS011;37287;47.554;7.844;2023-04-25T15:07:17;1.40;;;0.60;;
50789;SDS011;37287;47.554;7.844;2023-04-25T15:09:44;1.52;;;0.82;;
50789;SDS011;37287;47.554;7.844;2023-04-25T15:12:11;1.02;;;0.70;;
50789;SDS011;37287;47.554;7.844;2023-04-25T15:14:38;0.85;;;0.80;;
50789;SDS011;37287;47.554;7.844;2023-04-25T15:17:04;1.05;;;0.70;;
50789;SDS011;37287;47.554;7.844;2023-04-25T15:19:36;1.17;;;0.57;;
50789;SDS011;37287;47.554;7.844;2023-04-25T15:22:03;1.10;;;0.70;;
50789;SDS011;37287;47.554;7.844;2023-04-25T15:24:30;1.20;;;0.70;;
50789;SDS011;37287;47.554;7.844;2023-04-25T15:26:57;0.52;;;0.52;;